Evreux-Fauville (BA 105) Air Base


Codes: LFOE/EVX
Name: Evreux-Fauville (BA 105) Air Base
City: Evreux/Fauville
Country: France
Elevation: 464 ft.

Photos at Evreux-Fauville (BA 105) Air Base


   Photos courtesy of SpottingLog. You can add your own sightings and photos by signing up for a free trial today.



No photos found.

Weather at Evreux-Fauville (BA 105) Air Base


Time (UTC)DescriptionTempratureWindCloud coverageVisibilityPressureHumidity
18-Apr-2024 00:00Scattered Clouds3°C7 mph, NW37%10000m1016hPa89%
18-Apr-2024 03:00Light Rain3°C9 mph, NW55%10000m1017hPa93%
18-Apr-2024 06:00Scattered Clouds2°C9 mph, NW38%10000m1020hPa94%
18-Apr-2024 09:00Clear Sky8°C11 mph, NE4%10000m1022hPa72%
18-Apr-2024 12:00Scattered Clouds10°C11 mph, NE37%10000m1023hPa59%
18-Apr-2024 15:00Few Clouds12°C4 mph, NE20%10000m1023hPa51%
18-Apr-2024 18:00Scattered Clouds9°C7 mph, NW36%10000m1023hPa73%
18-Apr-2024 21:00Few Clouds4°C7 mph, NW22%10000m1025hPa93%
19-Apr-2024 00:00Scattered Clouds3°C7 mph, W43%10000m1024hPa93%
19-Apr-2024 03:00Overcast Clouds5°C11 mph, W99%10000m1022hPa82%
19-Apr-2024 06:00Overcast Clouds6°C13 mph, W98%10000m1021hPa80%
19-Apr-2024 09:00Overcast Clouds10°C18 mph, W89%10000m1019hPa84%
19-Apr-2024 12:00Light Rain11°C18 mph, NW94%10000m1018hPa80%
19-Apr-2024 15:00Light Rain10°C13 mph, NW100%10000m1019hPa81%
19-Apr-2024 18:00Light Rain9°C13 mph, NW78%10000m1020hPa79%
19-Apr-2024 21:00Light Rain5°C7 mph, N77%10000m1023hPa92%
20-Apr-2024 00:00Scattered Clouds2°C7 mph, NW40%10000m1024hPa91%
20-Apr-2024 03:00Clear Sky1°C7 mph, NW8%10000m1025hPa91%
20-Apr-2024 06:00Clear Sky2°C9 mph, NW6%10000m1027hPa90%
20-Apr-2024 09:00Few Clouds8°C13 mph, N15%10000m1028hPa66%
20-Apr-2024 12:00Broken Clouds8°C13 mph, N59%10000m1028hPa62%
20-Apr-2024 15:00Overcast Clouds8°C11 mph, N100%10000m1028hPa68%
20-Apr-2024 18:00Overcast Clouds7°C11 mph, N100%10000m1029hPa69%
20-Apr-2024 21:00Broken Clouds2°C7 mph, N53%10000m1030hPa87%
21-Apr-2024 00:00Scattered Clouds1°C7 mph, N32%10000m1030hPa89%
21-Apr-2024 03:00Few Clouds1°C7 mph, N13%10000m1029hPa91%
21-Apr-2024 06:00Scattered Clouds2°C7 mph, NW30%10000m1029hPa87%
21-Apr-2024 09:00Broken Clouds7°C13 mph, N69%10000m1028hPa65%
21-Apr-2024 12:00Broken Clouds8°C11 mph, N84%10000m1027hPa65%
21-Apr-2024 15:00Light Rain9°C13 mph, N100%10000m1026hPa69%
21-Apr-2024 18:00Light Rain7°C13 mph, N83%10000m1026hPa72%
21-Apr-2024 21:00Clear Sky4°C11 mph, N8%10000m1027hPa83%
22-Apr-2024 00:00Scattered Clouds2°C9 mph, N26%10000m1027hPa93%
22-Apr-2024 03:00Scattered Clouds1°C9 mph, N31%10000m1026hPa95%
22-Apr-2024 06:00Few Clouds2°C9 mph, N16%10000m1027hPa89%
22-Apr-2024 09:00Clear Sky7°C16 mph, NE4%10000m1026hPa67%
22-Apr-2024 12:00Light Rain9°C18 mph, NE27%10000m1025hPa55%
22-Apr-2024 15:00Light Rain8°C16 mph, NE100%10000m1024hPa58%
22-Apr-2024 18:00Light Rain5°C13 mph, NE93%10000m1024hPa74%
22-Apr-2024 21:00Overcast Clouds2°C9 mph, N97%10000m1024hPa88%